sensor_id;sensor_type;location;lat;lon;timestamp;P1;durP1;ratioP1;P2;durP2;ratioP2
12275;SDS011;6200;48.144;11.424;2023-03-12T00:00:29;0.47;;;0.47;;
12275;SDS011;6200;48.144;11.424;2023-03-12T00:02:55;0.50;;;0.50;;
12275;SDS011;6200;48.144;11.424;2023-03-12T00:05:21;0.40;;;0.40;;
12275;SDS011;6200;48.144;11.424;2023-03-12T00:07:47;0.60;;;0.60;;
12275;SDS011;6200;48.144;11.424;2023-03-12T00:10:12;0.40;;;0.40;;
12275;SDS011;6200;48.144;11.424;2023-03-12T00:12:38;0.43;;;0.43;;
12275;SDS011;6200;48.144;11.424;2023-03-12T00:15:04;0.40;;;0.40;;
12275;SDS011;6200;48.144;11.424;2023-03-12T00:17:30;0.50;;;0.50;;
12275;SDS011;6200;48.144;11.424;2023-03-12T00:19:56;0.60;;;0.60;;
12275;SDS011;6200;48.144;11.424;2023-03-12T00:22:21;0.50;;;0.50;;
12275;SDS011;6200;48.144;11.424;2023-03-12T00:24:54;0.50;;;0.50;;
12275;SDS011;6200;48.144;11.424;2023-03-12T00:27:20;0.40;;;0.40;;
12275;SDS011;6200;48.144;11.424;2023-03-12T00:29:46;0.47;;;0.47;;
12275;SDS011;6200;48.144;11.424;2023-03-12T00:32:12;0.60;;;0.60;;
12275;SDS011;6200;48.144;11.424;2023-03-12T00:34:38;0.40;;;0.40;;
12275;SDS011;6200;48.144;11.424;2023-03-12T00:37:04;0.43;;;0.43;;
12275;SDS011;6200;48.144;11.424;2023-03-12T00:39:29;0.40;;;0.40;;
12275;SDS011;6200;48.144;11.424;2023-03-12T00:41:56;0.53;;;0.53;;
12275;SDS011;6200;48.144;11.424;2023-03-12T00:44:21;0.50;;;0.50;;
12275;SDS011;6200;48.144;11.424;2023-03-12T00:46:47;0.60;;;0.60;;
12275;SDS011;6200;48.144;11.424;2023-03-12T00:49:12;0.40;;;0.40;;
12275;SDS011;6200;48.144;11.424;2023-03-12T00:51:38;0.50;;;0.50;;
12275;SDS011;6200;48.144;11.424;2023-03-12T00:54:03;0.60;;;0.60;;
12275;SDS011;6200;48.144;11.424;2023-03-12T00:56:29;0.50;;;0.50;;
12275;SDS011;6200;48.144;11.424;2023-03-12T00:58:55;0.50;;;0.50;;
12275;SDS011;6200;48.144;11.424;2023-03-12T01:01:21;0.50;;;0.50;;
12275;SDS011;6200;48.144;11.424;2023-03-12T01:03:46;0.50;;;0.50;;
12275;SDS011;6200;48.144;11.424;2023-03-12T01:06:16;0.50;;;0.50;;
12275;SDS011;6200;48.144;11.424;2023-03-12T01:08:42;0.50;;;0.50;;
12275;SDS011;6200;48.144;11.424;2023-03-12T01:11:11;0.60;;;0.60;;
12275;SDS011;6200;48.144;11.424;2023-03-12T01:13:38;0.50;;;0.50;;
12275;SDS011;6200;48.144;11.424;2023-03-12T01:16:04;0.60;;;0.60;;
12275;SDS011;6200;48.144;11.424;2023-03-12T01:18:29;0.50;;;0.50;;
12275;SDS011;6200;48.144;11.424;2023-03-12T01:20:55;0.40;;;0.40;;
12275;SDS011;6200;48.144;11.424;2023-03-12T01:23:21;0.50;;;0.50;;
12275;SDS011;6200;48.144;11.424;2023-03-12T01:25:46;0.47;;;0.47;;
12275;SDS011;6200;48.144;11.424;2023-03-12T01:28:12;0.40;;;0.40;;
12275;SDS011;6200;48.144;11.424;2023-03-12T01:30:37;0.50;;;0.50;;
12275;SDS011;6200;48.144;11.424;2023-03-12T01:33:03;0.50;;;0.50;;
12275;SDS011;6200;48.144;11.424;2023-03-12T01:35:28;0.40;;;0.40;;
12275;SDS011;6200;48.144;11.424;2023-03-12T01:37:54;0.50;;;0.50;;
12275;SDS011;6200;48.144;11.424;2023-03-12T01:40:21;0.40;;;0.40;;
12275;SDS011;6200;48.144;11.424;2023-03-12T01:42:53;0.40;;;0.40;;
12275;SDS011;6200;48.144;11.424;2023-03-12T01:48:23;0.60;;;0.60;;
12275;SDS011;6200;48.144;11.424;2023-03-12T01:50:51;0.50;;;0.50;;
12275;SDS011;6200;48.144;11.424;2023-03-12T01:53:16;0.50;;;0.50;;
12275;SDS011;6200;48.144;11.424;2023-03-12T01:55:42;0.50;;;0.50;;
12275;SDS011;6200;48.144;11.424;2023-03-12T01:58:08;0.60;;;0.60;;
12275;SDS011;6200;48.144;11.424;2023-03-12T02:00:33;0.43;;;0.43;;
12275;SDS011;6200;48.144;11.424;2023-03-12T02:03:00;0.50;;;0.50;;
12275;SDS011;6200;48.144;11.424;2023-03-12T02:08:14;0.50;;;0.50;;
12275;SDS011;6200;48.144;11.424;2023-03-12T02:10:42;0.40;;;0.40;;
12275;SDS011;6200;48.144;11.424;2023-03-12T02:13:08;0.40;;;0.40;;
12275;SDS011;6200;48.144;11.424;2023-03-12T02:15:35;0.40;;;0.40;;
12275;SDS011;6200;48.144;11.424;2023-03-12T02:18:02;0.50;;;0.50;;
12275;SDS011;6200;48.144;11.424;2023-03-12T02:20:42;0.50;;;0.50;;
12275;SDS011;6200;48.144;11.424;2023-03-12T02:23:25;0.50;;;0.50;;
12275;SDS011;6200;48.144;11.424;2023-03-12T02:25:55;0.50;;;0.50;;
12275;SDS011;6200;48.144;11.424;2023-03-12T02:28:21;0.50;;;0.50;;
12275;SDS011;6200;48.144;11.424;2023-03-12T02:30:50;0.50;;;0.50;;
12275;SDS011;6200;48.144;11.424;2023-03-12T02:33:17;0.50;;;0.50;;
12275;SDS011;6200;48.144;11.424;2023-03-12T02:35:44;0.50;;;0.50;;
12275;SDS011;6200;48.144;11.424;2023-03-12T02:38:31;0.40;;;0.40;;
12275;SDS011;6200;48.144;11.424;2023-03-12T02:41:11;0.50;;;0.50;;
12275;SDS011;6200;48.144;11.424;2023-03-12T02:43:44;0.50;;;0.50;;
12275;SDS011;6200;48.144;11.424;2023-03-12T02:46:13;0.50;;;0.50;;
12275;SDS011;6200;48.144;11.424;2023-03-12T02:48:39;0.43;;;0.43;;
12275;SDS011;6200;48.144;11.424;2023-03-12T02:51:04;0.50;;;0.50;;
12275;SDS011;6200;48.144;11.424;2023-03-12T02:53:30;0.40;;;0.40;;
12275;SDS011;6200;48.144;11.424;2023-03-12T02:55:56;0.50;;;0.50;;
12275;SDS011;6200;48.144;11.424;2023-03-12T02:58:21;0.40;;;0.40;;
12275;SDS011;6200;48.144;11.424;2023-03-12T03:00:47;0.50;;;0.50;;
12275;SDS011;6200;48.144;11.424;2023-03-12T03:03:13;0.50;;;0.50;;
12275;SDS011;6200;48.144;11.424;2023-03-12T03:05:39;0.50;;;0.50;;
12275;SDS011;6200;48.144;11.424;2023-03-12T03:08:04;0.40;;;0.40;;
12275;SDS011;6200;48.144;11.424;2023-03-12T03:10:30;0.50;;;0.50;;
12275;SDS011;6200;48.144;11.424;2023-03-12T03:12:55;0.50;;;0.50;;
12275;SDS011;6200;48.144;11.424;2023-03-12T03:15:21;0.53;;;0.53;;
12275;SDS011;6200;48.144;11.424;2023-03-12T03:17:47;0.57;;;0.57;;
12275;SDS011;6200;48.144;11.424;2023-03-12T03:20:12;0.50;;;0.50;;
12275;SDS011;6200;48.144;11.424;2023-03-12T03:22:38;0.57;;;0.57;;
12275;SDS011;6200;48.144;11.424;2023-03-12T03:25:04;0.43;;;0.43;;
12275;SDS011;6200;48.144;11.424;2023-03-12T03:27:31;0.73;;;0.73;;
12275;SDS011;6200;48.144;11.424;2023-03-12T03:29:56;0.43;;;0.43;;
12275;SDS011;6200;48.144;11.424;2023-03-12T03:32:22;0.50;;;0.50;;
12275;SDS011;6200;48.144;11.424;2023-03-12T03:34:47;0.50;;;0.50;;
12275;SDS011;6200;48.144;11.424;2023-03-12T03:37:13;0.70;;;0.70;;
12275;SDS011;6200;48.144;11.424;2023-03-12T03:39:39;0.50;;;0.50;;
12275;SDS011;6200;48.144;11.424;2023-03-12T03:42:04;0.40;;;0.40;;
12275;SDS011;6200;48.144;11.424;2023-03-12T03:44:30;0.50;;;0.50;;
12275;SDS011;6200;48.144;11.424;2023-03-12T03:46:55;0.40;;;0.40;;
12275;SDS011;6200;48.144;11.424;2023-03-12T03:49:21;0.60;;;0.60;;
12275;SDS011;6200;48.144;11.424;2023-03-12T03:51:47;0.50;;;0.50;;
12275;SDS011;6200;48.144;11.424;2023-03-12T03:54:15;0.50;;;0.50;;
12275;SDS011;6200;48.144;11.424;2023-03-12T03:56:41;0.40;;;0.40;;
12275;SDS011;6200;48.144;11.424;2023-03-12T03:59:07;0.50;;;0.50;;
12275;SDS011;6200;48.144;11.424;2023-03-12T04:01:32;0.50;;;0.50;;
12275;SDS011;6200;48.144;11.424;2023-03-12T04:03:58;0.50;;;0.50;;
12275;SDS011;6200;48.144;11.424;2023-03-12T04:06:24;0.40;;;0.40;;
12275;SDS011;6200;48.144;11.424;2023-03-12T04:08:50;0.50;;;0.50;;
12275;SDS011;6200;48.144;11.424;2023-03-12T04:11:16;0.50;;;0.50;;
12275;SDS011;6200;48.144;11.424;2023-03-12T04:13:44;0.40;;;0.40;;
12275;SDS011;6200;48.144;11.424;2023-03-12T04:16:10;0.50;;;0.50;;
12275;SDS011;6200;48.144;11.424;2023-03-12T04:18:37;0.50;;;0.50;;
12275;SDS011;6200;48.144;11.424;2023-03-12T04:21:04;0.50;;;0.50;;
12275;SDS011;6200;48.144;11.424;2023-03-12T04:23:31;0.43;;;0.43;;
12275;SDS011;6200;48.144;11.424;2023-03-12T04:25:57;0.50;;;0.50;;
12275;SDS011;6200;48.144;11.424;2023-03-12T04:28:23;0.50;;;0.50;;
12275;SDS011;6200;48.144;11.424;2023-03-12T04:30:55;0.50;;;0.50;;
12275;SDS011;6200;48.144;11.424;2023-03-12T04:33:23;0.50;;;0.50;;
12275;SDS011;6200;48.144;11.424;2023-03-12T04:35:53;0.40;;;0.40;;
12275;SDS011;6200;48.144;11.424;2023-03-12T04:38:20;0.50;;;0.50;;
12275;SDS011;6200;48.144;11.424;2023-03-12T04:40:46;0.50;;;0.50;;
12275;SDS011;6200;48.144;11.424;2023-03-12T04:43:12;0.50;;;0.50;;
12275;SDS011;6200;48.144;11.424;2023-03-12T04:45:37;0.50;;;0.50;;
12275;SDS011;6200;48.144;11.424;2023-03-12T04:48:03;0.50;;;0.50;;
12275;SDS011;6200;48.144;11.424;2023-03-12T04:50:30;0.47;;;0.47;;
12275;SDS011;6200;48.144;11.424;2023-03-12T04:52:55;0.50;;;0.50;;
12275;SDS011;6200;48.144;11.424;2023-03-12T04:55:21;0.40;;;0.40;;
12275;SDS011;6200;48.144;11.424;2023-03-12T04:57:46;0.60;;;0.60;;
12275;SDS011;6200;48.144;11.424;2023-03-12T05:00:12;0.40;;;0.40;;
12275;SDS011;6200;48.144;11.424;2023-03-12T05:02:38;0.50;;;0.50;;
12275;SDS011;6200;48.144;11.424;2023-03-12T05:05:05;0.50;;;0.50;;
12275;SDS011;6200;48.144;11.424;2023-03-12T05:07:31;0.50;;;0.50;;
12275;SDS011;6200;48.144;11.424;2023-03-12T05:09:57;0.40;;;0.40;;
12275;SDS011;6200;48.144;11.424;2023-03-12T05:12:23;0.50;;;0.50;;
12275;SDS011;6200;48.144;11.424;2023-03-12T05:14:48;0.50;;;0.50;;
12275;SDS011;6200;48.144;11.424;2023-03-12T05:17:14;0.40;;;0.40;;
12275;SDS011;6200;48.144;11.424;2023-03-12T05:19:39;0.40;;;0.40;;
12275;SDS011;6200;48.144;11.424;2023-03-12T05:22:05;0.40;;;0.40;;
12275;SDS011;6200;48.144;11.424;2023-03-12T05:24:30;0.40;;;0.40;;
12275;SDS011;6200;48.144;11.424;2023-03-12T05:26:56;0.40;;;0.40;;
12275;SDS011;6200;48.144;11.424;2023-03-12T05:29:22;0.40;;;0.40;;
12275;SDS011;6200;48.144;11.424;2023-03-12T05:31:47;0.40;;;0.40;;
12275;SDS011;6200;48.144;11.424;2023-03-12T05:34:13;0.50;;;0.50;;
12275;SDS011;6200;48.144;11.424;2023-03-12T05:36:39;0.40;;;0.40;;
12275;SDS011;6200;48.144;11.424;2023-03-12T05:39:05;0.50;;;0.50;;
12275;SDS011;6200;48.144;11.424;2023-03-12T05:41:31;0.50;;;0.50;;
12275;SDS011;6200;48.144;11.424;2023-03-12T05:43:57;0.50;;;0.50;;
12275;SDS011;6200;48.144;11.424;2023-03-12T05:46:23;0.47;;;0.47;;
12275;SDS011;6200;48.144;11.424;2023-03-12T05:48:51;0.40;;;0.40;;
12275;SDS011;6200;48.144;11.424;2023-03-12T05:51:17;0.60;;;0.60;;
12275;SDS011;6200;48.144;11.424;2023-03-12T05:53:42;0.43;;;0.43;;
12275;SDS011;6200;48.144;11.424;2023-03-12T05:56:10;0.40;;;0.40;;
12275;SDS011;6200;48.144;11.424;2023-03-12T05:58:37;0.40;;;0.40;;
12275;SDS011;6200;48.144;11.424;2023-03-12T06:01:10;0.50;;;0.50;;
12275;SDS011;6200;48.144;11.424;2023-03-12T06:03:47;0.50;;;0.50;;
12275;SDS011;6200;48.144;11.424;2023-03-12T06:06:13;0.60;;;0.60;;
12275;SDS011;6200;48.144;11.424;2023-03-12T06:08:39;0.50;;;0.50;;
12275;SDS011;6200;48.144;11.424;2023-03-12T06:11:06;0.60;;;0.60;;
12275;SDS011;6200;48.144;11.424;2023-03-12T06:13:31;0.60;;;0.60;;
12275;SDS011;6200;48.144;11.424;2023-03-12T06:16:04;0.40;;;0.40;;
12275;SDS011;6200;48.144;11.424;2023-03-12T06:18:32;0.50;;;0.50;;
12275;SDS011;6200;48.144;11.424;2023-03-12T06:21:10;0.40;;;0.40;;
12275;SDS011;6200;48.144;11.424;2023-03-12T06:23:43;0.40;;;0.40;;
12275;SDS011;6200;48.144;11.424;2023-03-12T06:26:10;0.50;;;0.50;;
12275;SDS011;6200;48.144;11.424;2023-03-12T06:28:36;0.30;;;0.30;;
12275;SDS011;6200;48.144;11.424;2023-03-12T06:31:02;0.40;;;0.40;;
12275;SDS011;6200;48.144;11.424;2023-03-12T06:33:28;0.50;;;0.50;;
12275;SDS011;6200;48.144;11.424;2023-03-12T06:35:55;0.40;;;0.40;;
12275;SDS011;6200;48.144;11.424;2023-03-12T06:38:22;0.50;;;0.50;;
12275;SDS011;6200;48.144;11.424;2023-03-12T06:40:52;0.50;;;0.50;;
12275;SDS011;6200;48.144;11.424;2023-03-12T06:43:28;0.40;;;0.40;;
12275;SDS011;6200;48.144;11.424;2023-03-12T06:45:56;0.60;;;0.60;;
12275;SDS011;6200;48.144;11.424;2023-03-12T06:48:23;0.50;;;0.50;;
12275;SDS011;6200;48.144;11.424;2023-03-12T06:50:50;0.47;;;0.47;;
12275;SDS011;6200;48.144;11.424;2023-03-12T06:53:16;0.50;;;0.50;;
12275;SDS011;6200;48.144;11.424;2023-03-12T06:55:43;0.50;;;0.50;;
12275;SDS011;6200;48.144;11.424;2023-03-12T06:58:08;0.50;;;0.50;;
12275;SDS011;6200;48.144;11.424;2023-03-12T07:00:35;0.53;;;0.53;;
12275;SDS011;6200;48.144;11.424;2023-03-12T07:03:01;0.40;;;0.40;;
12275;SDS011;6200;48.144;11.424;2023-03-12T07:05:27;0.50;;;0.50;;
12275;SDS011;6200;48.144;11.424;2023-03-12T07:07:52;0.40;;;0.40;;
12275;SDS011;6200;48.144;11.424;2023-03-12T07:10:18;0.40;;;0.40;;
12275;SDS011;6200;48.144;11.424;2023-03-12T07:12:44;0.40;;;0.40;;
12275;SDS011;6200;48.144;11.424;2023-03-12T07:15:10;0.40;;;0.40;;
12275;SDS011;6200;48.144;11.424;2023-03-12T07:17:36;0.37;;;0.37;;
12275;SDS011;6200;48.144;11.424;2023-03-12T07:20:01;0.40;;;0.40;;
12275;SDS011;6200;48.144;11.424;2023-03-12T07:22:27;0.40;;;0.40;;
12275;SDS011;6200;48.144;11.424;2023-03-12T07:24:53;0.50;;;0.50;;
12275;SDS011;6200;48.144;11.424;2023-03-12T07:27:18;0.43;;;0.43;;
12275;SDS011;6200;48.144;11.424;2023-03-12T07:29:44;0.40;;;0.40;;
12275;SDS011;6200;48.144;11.424;2023-03-12T07:32:09;0.40;;;0.40;;
12275;SDS011;6200;48.144;11.424;2023-03-12T07:34:35;0.47;;;0.47;;
12275;SDS011;6200;48.144;11.424;2023-03-12T07:37:00;0.50;;;0.50;;
12275;SDS011;6200;48.144;11.424;2023-03-12T07:39:26;0.37;;;0.37;;
12275;SDS011;6200;48.144;11.424;2023-03-12T07:41:51;0.40;;;0.40;;
12275;SDS011;6200;48.144;11.424;2023-03-12T07:44:17;0.37;;;0.37;;
12275;SDS011;6200;48.144;11.424;2023-03-12T07:46:43;0.30;;;0.30;;
12275;SDS011;6200;48.144;11.424;2023-03-12T07:49:08;0.30;;;0.30;;
12275;SDS011;6200;48.144;11.424;2023-03-12T07:51:34;0.40;;;0.40;;
12275;SDS011;6200;48.144;11.424;2023-03-12T07:53:59;0.50;;;0.50;;
12275;SDS011;6200;48.144;11.424;2023-03-12T07:56:25;0.50;;;0.50;;
12275;SDS011;6200;48.144;11.424;2023-03-12T07:58:50;0.40;;;0.40;;
12275;SDS011;6200;48.144;11.424;2023-03-12T08:01:16;0.50;;;0.50;;
12275;SDS011;6200;48.144;11.424;2023-03-12T08:03:42;0.47;;;0.47;;
12275;SDS011;6200;48.144;11.424;2023-03-12T08:06:07;0.43;;;0.43;;
12275;SDS011;6200;48.144;11.424;2023-03-12T08:08:33;0.30;;;0.30;;
12275;SDS011;6200;48.144;11.424;2023-03-12T08:11:00;0.40;;;0.40;;
12275;SDS011;6200;48.144;11.424;2023-03-12T08:13:27;0.40;;;0.40;;
12275;SDS011;6200;48.144;11.424;2023-03-12T08:15:53;0.30;;;0.30;;
12275;SDS011;6200;48.144;11.424;2023-03-12T08:18:19;0.30;;;0.30;;
12275;SDS011;6200;48.144;11.424;2023-03-12T08:20:48;0.40;;;0.40;;
12275;SDS011;6200;48.144;11.424;2023-03-12T08:23:17;0.30;;;0.30;;
12275;SDS011;6200;48.144;11.424;2023-03-12T08:25:47;0.40;;;0.40;;
12275;SDS011;6200;48.144;11.424;2023-03-12T08:28:13;0.40;;;0.40;;
12275;SDS011;6200;48.144;11.424;2023-03-12T08:30:53;0.50;;;0.50;;
12275;SDS011;6200;48.144;11.424;2023-03-12T08:33:20;0.40;;;0.40;;
12275;SDS011;6200;48.144;11.424;2023-03-12T08:35:46;0.40;;;0.40;;
12275;SDS011;6200;48.144;11.424;2023-03-12T08:38:13;0.50;;;0.50;;
12275;SDS011;6200;48.144;11.424;2023-03-12T08:40:38;0.30;;;0.30;;
12275;SDS011;6200;48.144;11.424;2023-03-12T08:43:04;0.30;;;0.30;;
12275;SDS011;6200;48.144;11.424;2023-03-12T08:45:31;0.30;;;0.30;;
12275;SDS011;6200;48.144;11.424;2023-03-12T08:47:57;0.30;;;0.30;;
12275;SDS011;6200;48.144;11.424;2023-03-12T08:50:22;0.30;;;0.30;;
12275;SDS011;6200;48.144;11.424;2023-03-12T08:52:50;0.30;;;0.30;;
12275;SDS011;6200;48.144;11.424;2023-03-12T08:55:15;0.40;;;0.40;;
12275;SDS011;6200;48.144;11.424;2023-03-12T08:57:41;0.47;;;0.47;;
12275;SDS011;6200;48.144;11.424;2023-03-12T09:00:07;0.50;;;0.50;;
12275;SDS011;6200;48.144;11.424;2023-03-12T09:02:36;0.40;;;0.40;;
12275;SDS011;6200;48.144;11.424;2023-03-12T09:05:02;0.50;;;0.50;;
12275;SDS011;6200;48.144;11.424;2023-03-12T09:07:31;0.33;;;0.33;;
12275;SDS011;6200;48.144;11.424;2023-03-12T09:09:57;0.47;;;0.47;;
12275;SDS011;6200;48.144;11.424;2023-03-12T09:12:22;0.50;;;0.50;;
12275;SDS011;6200;48.144;11.424;2023-03-12T09:14:49;0.40;;;0.40;;
12275;SDS011;6200;48.144;11.424;2023-03-12T09:17:15;0.40;;;0.40;;
12275;SDS011;6200;48.144;11.424;2023-03-12T09:19:40;0.40;;;0.40;;
12275;SDS011;6200;48.144;11.424;2023-03-12T09:22:06;0.30;;;0.30;;
12275;SDS011;6200;48.144;11.424;2023-03-12T09:24:31;0.30;;;0.30;;
12275;SDS011;6200;48.144;11.424;2023-03-12T09:26:57;0.30;;;0.30;;
12275;SDS011;6200;48.144;11.424;2023-03-12T09:29:23;0.40;;;0.40;;
12275;SDS011;6200;48.144;11.424;2023-03-12T09:31:49;0.30;;;0.30;;
12275;SDS011;6200;48.144;11.424;2023-03-12T09:34:15;0.40;;;0.40;;
12275;SDS011;6200;48.144;11.424;2023-03-12T09:36:40;0.30;;;0.30;;
12275;SDS011;6200;48.144;11.424;2023-03-12T09:39:06;0.30;;;0.30;;
12275;SDS011;6200;48.144;11.424;2023-03-12T09:41:33;0.40;;;0.40;;
12275;SDS011;6200;48.144;11.424;2023-03-12T09:44:01;0.30;;;0.30;;
12275;SDS011;6200;48.144;11.424;2023-03-12T09:46:34;0.30;;;0.30;;
12275;SDS011;6200;48.144;11.424;2023-03-12T09:49:18;0.50;;;0.50;;
12275;SDS011;6200;48.144;11.424;2023-03-12T09:52:17;0.50;;;0.50;;
12275;SDS011;6200;48.144;11.424;2023-03-12T09:57:22;0.40;;;0.40;;
12275;SDS011;6200;48.144;11.424;2023-03-12T09:59:49;0.60;;;0.60;;
12275;SDS011;6200;48.144;11.424;2023-03-12T10:02:43;0.40;;;0.40;;
12275;SDS011;6200;48.144;11.424;2023-03-12T10:05:18;0.40;;;0.40;;
12275;SDS011;6200;48.144;11.424;2023-03-12T10:08:06;0.50;;;0.50;;
12275;SDS011;6200;48.144;11.424;2023-03-12T10:16:38;0.40;;;0.40;;
12275;SDS011;6200;48.144;11.424;2023-03-12T10:19:20;0.40;;;0.40;;
12275;SDS011;6200;48.144;11.424;2023-03-12T10:24:53;0.40;;;0.40;;
12275;SDS011;6200;48.144;11.424;2023-03-12T10:27:38;0.40;;;0.40;;
12275;SDS011;6200;48.144;11.424;2023-03-12T10:30:12;0.53;;;0.53;;
12275;SDS011;6200;48.144;11.424;2023-03-12T10:32:43;0.40;;;0.40;;
12275;SDS011;6200;48.144;11.424;2023-03-12T10:35:16;0.40;;;0.40;;
12275;SDS011;6200;48.144;11.424;2023-03-12T10:37:45;0.40;;;0.40;;
12275;SDS011;6200;48.144;11.424;2023-03-12T10:40:15;0.40;;;0.40;;
12275;SDS011;6200;48.144;11.424;2023-03-12T10:42:44;0.40;;;0.40;;
12275;SDS011;6200;48.144;11.424;2023-03-12T10:47:49;0.50;;;0.50;;
12275;SDS011;6200;48.144;11.424;2023-03-12T10:50:23;0.33;;;0.33;;
12275;SDS011;6200;48.144;11.424;2023-03-12T10:55:41;0.60;;;0.60;;
12275;SDS011;6200;48.144;11.424;2023-03-12T10:58:08;0.43;;;0.43;;
12275;SDS011;6200;48.144;11.424;2023-03-12T11:00:55;0.30;;;0.30;;
12275;SDS011;6200;48.144;11.424;2023-03-12T11:03:22;0.40;;;0.40;;
12275;SDS011;6200;48.144;11.424;2023-03-12T11:05:49;0.40;;;0.40;;
12275;SDS011;6200;48.144;11.424;2023-03-12T11:08:20;0.30;;;0.30;;
12275;SDS011;6200;48.144;11.424;2023-03-12T11:10:48;0.40;;;0.40;;
12275;SDS011;6200;48.144;11.424;2023-03-12T11:15:55;0.30;;;0.30;;
12275;SDS011;6200;48.144;11.424;2023-03-12T11:18:27;0.40;;;0.40;;
12275;SDS011;6200;48.144;11.424;2023-03-12T11:20:57;0.33;;;0.33;;
12275;SDS011;6200;48.144;11.424;2023-03-12T11:24:23;0.47;;;0.47;;
12275;SDS011;6200;48.144;11.424;2023-03-12T11:26:24;0.40;;;0.40;;
12275;SDS011;6200;48.144;11.424;2023-03-12T11:28:58;0.40;;;0.40;;
12275;SDS011;6200;48.144;11.424;2023-03-12T11:31:33;0.40;;;0.40;;
12275;SDS011;6200;48.144;11.424;2023-03-12T11:34:04;0.50;;;0.50;;
12275;SDS011;6200;48.144;11.424;2023-03-12T11:39:12;0.30;;;0.30;;
12275;SDS011;6200;48.144;11.424;2023-03-12T11:42:15;0.40;;;0.40;;
12275;SDS011;6200;48.144;11.424;2023-03-12T11:48:03;0.33;;;0.33;;
12275;SDS011;6200;48.144;11.424;2023-03-12T11:50:37;0.30;;;0.30;;
12275;SDS011;6200;48.144;11.424;2023-03-12T11:53:23;0.20;;;0.20;;
12275;SDS011;6200;48.144;11.424;2023-03-12T11:55:55;0.30;;;0.30;;
12275;SDS011;6200;48.144;11.424;2023-03-12T11:58:33;0.30;;;0.30;;
12275;SDS011;6200;48.144;11.424;2023-03-12T12:04:04;0.40;;;0.40;;
12275;SDS011;6200;48.144;11.424;2023-03-12T12:06:46;0.30;;;0.30;;
12275;SDS011;6200;48.144;11.424;2023-03-12T12:09:22;0.30;;;0.30;;
12275;SDS011;6200;48.144;11.424;2023-03-12T12:14:50;0.40;;;0.40;;
12275;SDS011;6200;48.144;11.424;2023-03-12T12:33:52;0.40;;;0.40;;
12275;SDS011;6200;48.144;11.424;2023-03-12T12:36:30;0.27;;;0.27;;
12275;SDS011;6200;48.144;11.424;2023-03-12T12:38:59;0.30;;;0.30;;
12275;SDS011;6200;48.144;11.424;2023-03-12T12:41:36;0.30;;;0.30;;
12275;SDS011;6200;48.144;11.424;2023-03-12T12:44:09;0.20;;;0.20;;
12275;SDS011;6200;48.144;11.424;2023-03-12T12:46:39;0.33;;;0.33;;
12275;SDS011;6200;48.144;11.424;2023-03-12T12:49:10;0.20;;;0.20;;
12275;SDS011;6200;48.144;11.424;2023-03-12T12:51:39;0.30;;;0.30;;
12275;SDS011;6200;48.144;11.424;2023-03-12T12:56:50;0.30;;;0.30;;
12275;SDS011;6200;48.144;11.424;2023-03-12T12:59:25;0.20;;;0.20;;
12275;SDS011;6200;48.144;11.424;2023-03-12T13:01:52;0.20;;;0.20;;
12275;SDS011;6200;48.144;11.424;2023-03-12T13:04:27;0.20;;;0.20;;
12275;SDS011;6200;48.144;11.424;2023-03-12T13:09:41;0.20;;;0.20;;
12275;SDS011;6200;48.144;11.424;2023-03-12T13:14:38;0.20;;;0.20;;
12275;SDS011;6200;48.144;11.424;2023-03-12T13:17:07;0.20;;;0.20;;
12275;SDS011;6200;48.144;11.424;2023-03-12T13:19:51;0.20;;;0.20;;
12275;SDS011;6200;48.144;11.424;2023-03-12T13:28:31;0.20;;;0.20;;
12275;SDS011;6200;48.144;11.424;2023-03-12T13:31:44;0.30;;;0.30;;
12275;SDS011;6200;48.144;11.424;2023-03-12T13:33:45;0.20;;;0.20;;
12275;SDS011;6200;48.144;11.424;2023-03-12T13:39:00;0.20;;;0.20;;
12275;SDS011;6200;48.144;11.424;2023-03-12T13:41:45;0.20;;;0.20;;
12275;SDS011;6200;48.144;11.424;2023-03-12T13:46:48;0.20;;;0.20;;
12275;SDS011;6200;48.144;11.424;2023-03-12T13:49:25;0.20;;;0.20;;
12275;SDS011;6200;48.144;11.424;2023-03-12T13:52:07;0.20;;;0.20;;
12275;SDS011;6200;48.144;11.424;2023-03-12T13:54:34;0.20;;;0.20;;
12275;SDS011;6200;48.144;11.424;2023-03-12T13:57:09;0.20;;;0.20;;
12275;SDS011;6200;48.144;11.424;2023-03-12T13:59:54;0.20;;;0.20;;
12275;SDS011;6200;48.144;11.424;2023-03-12T14:02:25;0.20;;;0.20;;
12275;SDS011;6200;48.144;11.424;2023-03-12T14:05:07;0.20;;;0.20;;
12275;SDS011;6200;48.144;11.424;2023-03-12T14:10:25;0.20;;;0.20;;
12275;SDS011;6200;48.144;11.424;2023-03-12T14:13:08;0.20;;;0.20;;
12275;SDS011;6200;48.144;11.424;2023-03-12T14:18:22;0.20;;;0.20;;
12275;SDS011;6200;48.144;11.424;2023-03-12T14:20:54;0.23;;;0.23;;
12275;SDS011;6200;48.144;11.424;2023-03-12T14:23:24;0.20;;;0.20;;
12275;SDS011;6200;48.144;11.424;2023-03-12T14:25:58;0.20;;;0.20;;
12275;SDS011;6200;48.144;11.424;2023-03-12T14:28:26;0.20;;;0.20;;
12275;SDS011;6200;48.144;11.424;2023-03-12T14:30:57;0.20;;;0.20;;
12275;SDS011;6200;48.144;11.424;2023-03-12T14:33:23;0.20;;;0.20;;
12275;SDS011;6200;48.144;11.424;2023-03-12T14:36:05;0.20;;;0.20;;
12275;SDS011;6200;48.144;11.424;2023-03-12T14:38:36;0.20;;;0.20;;
12275;SDS011;6200;48.144;11.424;2023-03-12T14:43:40;0.20;;;0.20;;
12275;SDS011;6200;48.144;11.424;2023-03-12T14:46:17;0.20;;;0.20;;
12275;SDS011;6200;48.144;11.424;2023-03-12T14:48:46;0.20;;;0.20;;
12275;SDS011;6200;48.144;11.424;2023-03-12T14:51:20;0.20;;;0.20;;
12275;SDS011;6200;48.144;11.424;2023-03-12T14:53:46;0.20;;;0.20;;
12275;SDS011;6200;48.144;11.424;2023-03-12T14:56:13;0.20;;;0.10;;
12275;SDS011;6200;48.144;11.424;2023-03-12T14:58:49;0.20;;;0.20;;
12275;SDS011;6200;48.144;11.424;2023-03-12T15:01:20;0.20;;;0.20;;
12275;SDS011;6200;48.144;11.424;2023-03-12T15:03:49;0.20;;;0.20;;
12275;SDS011;6200;48.144;11.424;2023-03-12T15:06:30;0.20;;;0.20;;
12275;SDS011;6200;48.144;11.424;2023-03-12T15:09:03;0.20;;;0.20;;
12275;SDS011;6200;48.144;11.424;2023-03-12T15:11:32;0.20;;;0.20;;
12275;SDS011;6200;48.144;11.424;2023-03-12T15:14:06;0.20;;;0.20;;
12275;SDS011;6200;48.144;11.424;2023-03-12T15:16:35;0.20;;;0.20;;
12275;SDS011;6200;48.144;11.424;2023-03-12T15:19:01;0.20;;;0.20;;
12275;SDS011;6200;48.144;11.424;2023-03-12T15:21:28;0.20;;;0.20;;
12275;SDS011;6200;48.144;11.424;2023-03-12T15:23:55;0.20;;;0.20;;
12275;SDS011;6200;48.144;11.424;2023-03-12T15:29:00;0.20;;;0.20;;
12275;SDS011;6200;48.144;11.424;2023-03-12T15:31:39;0.20;;;0.20;;
12275;SDS011;6200;48.144;11.424;2023-03-12T15:36:55;0.20;;;0.20;;
12275;SDS011;6200;48.144;11.424;2023-03-12T15:39:26;0.20;;;0.20;;
12275;SDS011;6200;48.144;11.424;2023-03-12T15:41:55;0.30;;;0.30;;
12275;SDS011;6200;48.144;11.424;2023-03-12T15:44:44;0.20;;;0.20;;
12275;SDS011;6200;48.144;11.424;2023-03-12T15:47:16;0.20;;;0.20;;
12275;SDS011;6200;48.144;11.424;2023-03-12T15:49:47;0.20;;;0.20;;
12275;SDS011;6200;48.144;11.424;2023-03-12T15:54:43;0.20;;;0.20;;
12275;SDS011;6200;48.144;11.424;2023-03-12T15:57:50;0.30;;;0.30;;
12275;SDS011;6200;48.144;11.424;2023-03-12T16:00:18;0.20;;;0.20;;
12275;SDS011;6200;48.144;11.424;2023-03-12T16:02:52;0.20;;;0.20;;
12275;SDS011;6200;48.144;11.424;2023-03-12T16:05:18;0.20;;;0.20;;
12275;SDS011;6200;48.144;11.424;2023-03-12T16:07:46;0.20;;;0.20;;
12275;SDS011;6200;48.144;11.424;2023-03-12T16:10:12;0.20;;;0.20;;
12275;SDS011;6200;48.144;11.424;2023-03-12T16:12:43;0.20;;;0.20;;
12275;SDS011;6200;48.144;11.424;2023-03-12T16:15:13;0.30;;;0.30;;
12275;SDS011;6200;48.144;11.424;2023-03-12T16:17:53;0.20;;;0.20;;
12275;SDS011;6200;48.144;11.424;2023-03-12T16:20:19;0.20;;;0.20;;
12275;SDS011;6200;48.144;11.424;2023-03-12T16:22:44;0.20;;;0.20;;
12275;SDS011;6200;48.144;11.424;2023-03-12T16:25:10;0.20;;;0.20;;
12275;SDS011;6200;48.144;11.424;2023-03-12T16:27:37;0.20;;;0.20;;